Time;durP1;ratioP1;P1;durP2;ratioP2;P2;SDS_P1;SDS_P2;PMS_P1;PMS_P2;Temp;Humidity;BMP_temperature;BMP_pressure;BME280_temperature;BME280_humidity;BME280_pressure;Samples;Min_cycle;Max_cycle;Signal;HPM_P1;HPM_P2
2023/11/13 00:01:08;;;;;;;;;;;;;;;6.91;100.00;98905.69;6273601;22;20339;-83
2023/11/13 00:03:34;;;;;;;;;;;;;;;6.74;100.00;98895.00;6275060;22;19988;-83
2023/11/13 00:05:59;;;;;;;;;;;;;;;6.65;100.00;98904.16;6247595;22;19919;-84
2023/11/13 00:08:24;;;;;;;;;;;;;;;6.59;100.00;98914.94;6274975;22;20390;-81
2023/11/13 00:10:50;;;;;;;;;;;;;;;6.49;100.00;98905.66;6275035;22;19907;-83
2023/11/13 00:13:16;;;;;;;;;;;;;;;6.43;100.00;98908.53;6248191;22;20789;-82
2023/11/13 00:15:41;;;;;;;;;;;;;;;6.35;100.00;98903.56;6273310;22;20316;-84
2023/11/13 00:18:07;;;;;;;;;;;;;;;6.27;100.00;98900.41;6274788;22;19939;-83
2023/11/13 00:20:32;;;;;;;;;;;;;;;6.23;100.00;98902.31;6247796;22;20371;-84
2023/11/13 00:22:57;;;;;;;;;;;;;;;6.19;100.00;98908.63;6274639;22;19907;-84
2023/11/13 00:25:22;;;;;;;;;;;;;;;6.16;100.00;98909.59;6274891;22;19915;-83
2023/11/13 00:27:48;;;;;;;;;;;;;;;6.14;100.00;98915.81;6247846;22;19915;-81
2023/11/13 09:01:35;;;;;;;;;;;;;;;8.95;100.00;98840.94;6273647;22;19973;-91
2023/11/13 09:04:02;;;;;;;;;;;;;;;8.93;100.00;98839.28;6249774;22;19919;-89
2023/11/13 09:06:34;;;;;;;;;;;;;;;8.24;100.00;98836.47;6275771;22;19949;-90
2023/11/13 09:09:53;;;;;;;;;;;;;;;;;;;;;
2023/11/13 09:12:22;;;;;;;;;;;;;;;8.11;100.00;98833.56;6225795;22;19995;-95
2023/11/13 09:14:47;;;;;;;;;;;;;;;7.55;100.00;98826.53;6275093;22;19954;-93
2023/11/13 09:17:36;;;;;;;;;;;;;;;8.05;100.00;98823.31;6278651;22;19912;-94
2023/11/13 09:23:22;;;;;;;;;;;;;;;10.40;100.00;98808.44;6174189;23;19923;-96
2023/11/13 09:25:47;;;;;;;;;;;;;;;8.17;100.00;98801.59;6273853;22;19934;-92
2023/11/13 09:28:16;;;;;;;;;;;;;;;7.68;100.00;98797.81;6277276;22;20346;-93
2023/11/13 09:31:19;;;;;;;;;;;;;;;7.41;100.00;98785.00;6278277;22;20305;-93
2023/11/13 09:33:52;;;;;;;;;;;;;;;8.07;100.00;98778.38;6156084;23;19919;-94
2023/11/13 09:36:32;;;;;;;;;;;;;;;10.95;100.00;98785.81;6246956;22;19922;-93
2023/11/13 09:38:58;;;;;;;;;;;;;;;7.82;100.00;98761.09;6250963;22;19993;-85
2023/11/13 09:41:45;;;;;;;;;;;;;;;7.29;100.00;98765.31;6290036;22;19919;-96
2023/11/13 09:44:39;;;;;;;;;;;;;;;6.85;100.00;98771.66;6290116;22;19911;-93
2023/11/13 09:47:20;;;;;;;;;;;;;;;;;;;;;
2023/11/13 09:50:07;;;;;;;;;;;;;;;6.51;100.00;98766.97;6295829;22;19922;-95
2023/11/13 09:56:30;;;;;;;;;;;;;;;6.21;100.00;98769.97;6147986;23;19987;-94
2023/11/13 09:58:56;;;;;;;;;;;;;;;6.18;100.00;98757.81;6136733;23;19916;-91
2023/11/13 10:01:21;;;;;;;;;;;;;;;6.14;100.00;98757.97;6251401;22;19911;-89
2023/11/13 10:03:47;;;;;;;;;;;;;;;6.13;100.00;98735.25;6250719;22;20009;-88
2023/11/13 10:06:33;;;;;;;;;;;;;;;6.07;100.00;98735.50;6279750;22;20315;-92
2023/11/13 10:09:01;;;;;;;;;;;;;;;5.97;100.00;98733.25;6257578;22;19962;-89
2023/11/13 10:11:29;;;;;;;;;;;;;;;5.84;100.00;98745.16;6277437;22;19945;-96
2023/11/13 10:14:08;;;;;;;;;;;;;;;5.73;100.00;98742.09;6277688;22;19911;-95
2023/11/13 10:16:37;;;;;;;;;;;;;;;5.69;100.00;98738.72;6279314;22;20052;-93
2023/11/13 10:27:22;;;;;;;;;;;;;;;5.85;100.00;98746.00;6278705;22;19923;-93
2023/11/13 10:29:47;;;;;;;;;;;;;;;5.90;100.00;98734.38;6251526;22;19926;-91
2023/11/13 10:45:35;;;;;;;;;;;;;;;;;;;;;
2023/11/13 11:05:28;;;;;;;;;;;;;;;6.31;100.00;98681.84;6267073;22;19923;-89
2023/11/13 11:14:13;;;;;;;;;;;;;;;6.22;100.00;98689.28;6275609;22;19918;-91
2023/11/13 11:17:02;;;;;;;;;;;;;;;6.28;100.00;98676.72;6249598;22;19954;-95
2023/11/13 11:19:31;;;;;;;;;;;;;;;6.25;100.00;98676.00;6231818;22;19911;-94
2023/11/13 11:22:25;;;;;;;;;;;;;;;6.34;100.00;98665.94;6250573;22;19911;-88
2023/11/13 11:43:50;;;;;;;;;;;;;;;6.43;100.00;98641.00;6264768;22;19930;-93
2023/11/13 11:49:32;;;;;;;;;;;;;;;6.49;100.00;98626.72;6237655;22;19927;-91
2023/11/13 11:52:05;;;;;;;;;;;;;;;6.40;100.00;98638.50;6220140;23;19916;-95
2023/11/13 12:09:56;;;;;;;;;;;;;;;6.46;100.00;98618.94;6250943;22;19959;-94
2023/11/13 12:12:25;;;;;;;;;;;;;;;6.50;100.00;98612.63;6237403;23;20339;-91
2023/11/13 12:14:50;;;;;;;;;;;;;;;6.50;100.00;98617.91;6219527;23;19923;-91
2023/11/13 12:17:20;;;;;;;;;;;;;;;6.41;100.00;98613.03;6246853;23;19911;-91
2023/11/13 12:19:48;;;;;;;;;;;;;;;6.48;100.00;98610.06;6222646;23;19939;-91
2023/11/13 12:22:30;;;;;;;;;;;;;;;6.40;100.00;98595.53;6245312;23;20186;-91
2023/11/13 12:24:56;;;;;;;;;;;;;;;6.44;100.00;98602.38;6229354;22;19930;-89
2023/11/13 12:27:24;;;;;;;;;;;;;;;6.36;100.00;98603.56;6249255;22;20319;-87
2023/11/13 12:30:05;;;;;;;;;;;;;;;6.44;100.00;98605.84;6248243;22;19916;-90
2023/11/13 12:32:32;;;;;;;;;;;;;;;6.46;100.00;98597.91;6276995;22;19915;-89
2023/11/13 12:34:57;;;;;;;;;;;;;;;6.46;100.00;98608.41;6251922;22;19943;-90
2023/11/13 12:40:43;;;;;;;;;;;;;;;6.45;100.00;98607.56;6288399;22;19926;-96
2023/11/13 12:46:06;;;;;;;;;;;;;;;6.50;100.00;98581.91;6239601;22;20006;-90
2023/11/13 12:48:32;;;;;;;;;;;;;;;6.53;100.00;98581.75;6250018;22;19922;-89
2023/11/13 12:51:15;;;;;;;;;;;;;;;6.54;100.00;98575.59;6279396;22;19927;-96
2023/11/13 13:04:31;;;;;;;;;;;;;;;;;;;;;
2023/11/13 13:07:00;;;;;;;;;;;;;;;7.00;100.00;98591.00;6267394;22;19941;-94
2023/11/13 13:09:28;;;;;;;;;;;;;;;6.93;100.00;98583.50;6256668;22;19910;-90
2023/11/13 13:22:59;;;;;;;;;;;;;;;6.93;100.00;98562.44;6221354;23;19920;-95
2023/11/13 13:36:16;;;;;;;;;;;;;;;5.41;100.00;98542.75;6216076;23;19971;-88
2023/11/13 13:38:44;;;;;;;;;;;;;;;5.22;100.00;98534.78;6215253;23;19926;-93
2023/11/13 13:41:09;;;;;;;;;;;;;;;5.10;100.00;98532.66;6181823;23;19916;-94
2023/11/13 13:43:41;;;;;;;;;;;;;;;5.01;100.00;98533.03;6216153;23;19988;-93
2023/11/13 13:46:30;;;;;;;;;;;;;;;4.91;100.00;98527.28;6190702;23;19912;-92
2023/11/13 13:49:11;;;;;;;;;;;;;;;4.82;100.00;98528.53;6236888;22;19923;-94
2023/11/13 13:51:39;;;;;;;;;;;;;;;4.87;100.00;98521.31;6276104;22;20242;-88
2023/11/13 13:54:07;;;;;;;;;;;;;;;4.78;100.00;98508.53;6242751;22;20278;-86
2023/11/13 13:56:42;;;;;;;;;;;;;;;4.72;100.00;98512.28;6275828;22;19921;-92
2023/11/13 13:59:07;;;;;;;;;;;;;;;4.72;100.00;98498.28;6275306;22;20323;-91
2023/11/13 14:01:32;;;;;;;;;;;;;;;4.65;100.00;98489.81;6278311;22;19973;-96
2023/11/13 14:04:02;;;;;;;;;;;;;;;4.66;100.00;98491.53;6281259;22;19907;-94
2023/11/13 14:06:27;;;;;;;;;;;;;;;4.67;100.00;98490.59;6286175;22;20373;-96
2023/11/13 14:08:53;;;;;;;;;;;;;;;4.50;100.00;98488.66;6283707;22;19911;-95
2023/11/13 14:11:24;;;;;;;;;;;;;;;4.54;100.00;98469.22;6286819;22;19918;-93
2023/11/13 14:13:52;;;;;;;;;;;;;;;4.49;100.00;98473.81;6283401;22;19942;-96
2023/11/13 14:16:17;;;;;;;;;;;;;;;4.52;100.00;98467.59;6257590;22;19919;-96
2023/11/13 14:18:43;;;;;;;;;;;;;;;4.48;100.00;98480.00;6282026;22;19915;-91
2023/11/13 14:21:09;;;;;;;;;;;;;;;4.42;100.00;98477.59;6281175;22;19925;-96
2023/11/13 14:23:34;;;;;;;;;;;;;;;4.47;100.00;98454.66;6255508;22;20232;-96
2023/11/13 14:26:07;;;;;;;;;;;;;;;4.41;100.00;98443.56;6249720;22;19919;-96
2023/11/13 14:28:32;;;;;;;;;;;;;;;4.48;100.00;98435.41;6268443;22;19970;-92
2023/11/13 14:30:58;;;;;;;;;;;;;;;4.42;100.00;98438.25;6282938;22;19920;-96
2023/11/13 14:33:26;;;;;;;;;;;;;;;4.49;100.00;98444.97;6284925;22;20315;-93
2023/11/13 14:35:52;;;;;;;;;;;;;;;4.46;100.00;98442.44;6294680;22;19918;-96
2023/11/13 14:38:47;;;;;;;;;;;;;;;;;;;;;
2023/11/13 14:41:13;;;;;;;;;;;;;;;4.38;100.00;98438.44;6282364;22;19951;-89
2023/11/13 14:46:35;;;;;;;;;;;;;;;4.30;100.00;98434.31;6187902;22;19919;-96
2023/11/13 14:49:09;;;;;;;;;;;;;;;4.27;100.00;98426.56;6263575;22;19895;-96
2023/11/13 14:51:35;;;;;;;;;;;;;;;4.32;100.00;98426.41;6274189;22;19911;-91
2023/11/13 14:54:00;;;;;;;;;;;;;;;4.37;100.00;98429.69;6276711;22;19915;-87
2023/11/13 14:56:25;;;;;;;;;;;;;;;4.34;100.00;98419.31;6276766;22;19957;-89
2023/11/13 14:58:51;;;;;;;;;;;;;;;4.33;100.00;98422.88;6274999;22;19911;-88
2023/11/13 15:01:17;;;;;;;;;;;;;;;4.30;100.00;98417.75;6276821;22;19915;-90
2023/11/13 15:03:45;;;;;;;;;;;;;;;4.32;100.00;98411.53;6277832;22;19945;-91
2023/11/13 15:06:21;;;;;;;;;;;;;;;4.34;100.00;98417.56;6279446;22;20250;-96
2023/11/13 15:08:47;;;;;;;;;;;;;;;4.25;100.00;98410.06;6250897;22;20279;-89
2023/11/13 15:11:12;;;;;;;;;;;;;;;4.32;100.00;98405.41;6256971;22;20377;-88
2023/11/13 15:14:12;;;;;;;;;;;;;;;4.30;100.00;98409.88;6287643;22;19922;-87
2023/11/13 15:26:03;;;;;;;;;;;;;;;4.16;100.00;98398.19;6042154;23;19910;-93
2023/11/13 15:32:06;;;;;;;;;;;;;;;;;;;;;
2023/11/13 15:35:18;;;;;;;;;;;;;;;4.15;100.00;98399.06;6124708;23;19988;-95
2023/11/13 15:37:43;;;;;;;;;;;;;;;4.28;100.00;98404.69;6005293;23;19937;-89
2023/11/13 15:40:10;;;;;;;;;;;;;;;4.33;100.00;98400.13;6233778;22;20311;-89
2023/11/13 15:42:57;;;;;;;;;;;;;;;4.29;100.00;98393.31;6277197;22;20258;-95
2023/11/13 15:49:03;;;;;;;;;;;;;;;4.25;100.00;98404.81;6130858;23;20321;-96
2023/11/13 15:51:28;;;;;;;;;;;;;;;4.23;100.00;98387.41;6113257;23;20365;-94
2023/11/13 16:00:27;;;;;;;;;;;;;;;4.34;100.00;98393.09;6027139;23;19917;-93
2023/11/13 16:02:52;;;;;;;;;;;;;;;4.26;100.00;98395.16;6126415;23;19916;-90
2023/11/13 16:29:28;;;;;;;;;;;;;;;4.32;100.00;98392.31;6238323;22;20006;-94
2023/11/13 16:44:06;;;;;;;;;;;;;;;;;;;;;
2023/11/13 16:49:42;;;;;;;;;;;;;;;;;;;;;
2023/11/13 16:52:06;;;;;;;;;;;;;;;;;;;;;
2023/11/13 16:55:09;;;;;;;;;;;;;;;4.34;100.00;98406.22;6281248;22;19998;-93
2023/11/13 16:57:58;;;;;;;;;;;;;;;;;;;;;
2023/11/13 17:06:05;;;;;;;;;;;;;;;4.34;100.00;98422.81;6282272;22;19919;-93
2023/11/13 17:08:31;;;;;;;;;;;;;;;4.31;100.00;98419.47;6267466;22;20381;-89
2023/11/13 17:11:00;;;;;;;;;;;;;;;4.38;100.00;98418.28;6294006;22;19911;-94
2023/11/13 17:17:19;;;;;;;;;;;;;;;;;;;;;
2023/11/13 17:22:29;;;;;;;;;;;;;;;4.32;100.00;98427.28;6137540;23;20300;-93
2023/11/13 17:28:45;;;;;;;;;;;;;;;;;;;;;
2023/11/13 17:34:44;;;;;;;;;;;;;;;4.31;100.00;98424.72;6075449;23;19936;-94
2023/11/13 17:40:23;;;;;;;;;;;;;;;4.36;100.00;98423.59;6016099;23;19929;-90
2023/11/13 17:43:12;;;;;;;;;;;;;;;;;;;;;
2023/11/13 17:46:09;;;;;;;;;;;;;;;4.27;100.00;98417.88;6194846;23;20000;-93
2023/11/13 17:48:36;;;;;;;;;;;;;;;4.34;100.00;98432.44;6193179;23;19919;-89
2023/11/13 17:51:27;;;;;;;;;;;;;;;4.39;100.00;98422.63;6175167;23;19919;-91
2023/11/13 17:53:54;;;;;;;;;;;;;;;4.35;100.00;98434.16;6100358;23;19917;-94
2023/11/13 17:56:47;;;;;;;;;;;;;;;4.42;100.00;98440.88;6137887;23;19912;-94
2023/11/13 17:59:12;;;;;;;;;;;;;;;4.34;100.00;98456.03;6125674;23;20329;-94
2023/11/13 18:10:16;;;;;;;;;;;;;;;4.38;100.00;98465.50;6249342;22;20366;-94
2023/11/13 18:12:42;;;;;;;;;;;;;;;4.49;100.00;98479.06;6248975;23;19926;-93
2023/11/13 18:15:31;;;;;;;;;;;;;;;4.37;100.00;98576.56;6220243;23;19912;-95
2023/11/13 18:36:21;;;;;;;;;;;;;;;4.34;100.00;98602.91;6223136;23;19961;-95
2023/11/13 18:39:12;;;;;;;;;;;;;;;4.30;100.00;98612.66;6221833;23;19915;-94
2023/11/13 18:47:10;;;;;;;;;;;;;;;4.39;100.00;98687.53;6252834;22;20405;-91
2023/11/13 18:49:36;;;;;;;;;;;;;;;5.16;100.00;98655.84;6251227;22;19921;-91
2023/11/13 18:52:01;;;;;;;;;;;;;;;4.49;100.00;98652.19;6251041;22;20231;-92
2023/11/13 18:54:30;;;;;;;;;;;;;;;4.36;100.00;98643.06;6252966;22;20204;-91
2023/11/13 18:57:03;;;;;;;;;;;;;;;4.34;100.00;98642.25;6257396;22;19915;-93
2023/11/13 18:59:28;;;;;;;;;;;;;;;4.31;100.00;98643.22;6252104;22;19915;-93
2023/11/13 19:02:04;;;;;;;;;;;;;;;4.37;100.00;98652.63;6281513;22;20240;-93
2023/11/13 19:04:32;;;;;;;;;;;;;;;4.29;100.00;98658.16;6251034;22;20250;-92
2023/11/13 19:07:16;;;;;;;;;;;;;;;4.26;100.00;98645.16;6253314;22;19911;-94
2023/11/13 19:09:45;;;;;;;;;;;;;;;4.22;100.00;98642.69;6263664;22;19954;-95
2023/11/13 19:12:20;;;;;;;;;;;;;;;4.21;100.00;98641.81;6250603;22;19950;-94
2023/11/13 19:15:07;;;;;;;;;;;;;;;4.14;100.00;98641.19;6249168;22;20573;-95
2023/11/13 19:17:38;;;;;;;;;;;;;;;4.22;100.00;98647.94;6250953;22;19915;-95
2023/11/13 19:20:26;;;;;;;;;;;;;;;4.17;100.00;98651.56;6249443;22;19950;-95
2023/11/13 19:23:30;;;;;;;;;;;;;;;;;;;;;
2023/11/13 19:28:32;;;;;;;;;;;;;;;4.08;100.00;98649.25;6270937;22;19919;-96
2023/11/13 19:31:26;;;;;;;;;;;;;;;4.03;100.00;98650.34;6186899;23;19916;-93
2023/11/13 19:34:17;;;;;;;;;;;;;;;4.05;100.00;98653.75;6074943;23;20040;-94
2023/11/13 19:39:19;;;;;;;;;;;;;;;4.06;100.00;98677.31;6276133;22;20006;-89
2023/11/13 19:41:51;;;;;;;;;;;;;;;4.06;100.00;98690.41;6249532;22;19911;-90
2023/11/13 19:44:29;;;;;;;;;;;;;;;;;;;;;
2023/11/13 19:49:21;;;;;;;;;;;;;;;4.16;100.00;98690.94;6290517;22;20002;-88
2023/11/13 19:51:49;;;;;;;;;;;;;;;4.01;100.00;98684.47;6259200;22;19933;-90
2023/11/13 19:54:37;;;;;;;;;;;;;;;4.02;100.00;98685.31;6259567;22;19919;-95
2023/11/13 19:57:11;;;;;;;;;;;;;;;4.05;100.00;98687.84;6261575;22;19911;-94
2023/11/13 20:00:30;;;;;;;;;;;;;;;;;;;;;
2023/11/13 20:03:16;;;;;;;;;;;;;;;;;;;;;
2023/11/13 20:05:39;;;;;;;;;;;;;;;4.00;100.00;98695.84;6268285;22;19994;-94
2023/11/13 20:14:48;;;;;;;;;;;;;;;;;;;;;
2023/11/13 20:17:14;;;;;;;;;;;;;;;3.94;100.00;98683.81;6231144;22;19955;-93
2023/11/13 20:19:42;;;;;;;;;;;;;;;3.99;100.00;98684.53;6250798;22;19950;-92
2023/11/13 20:22:10;;;;;;;;;;;;;;;4.01;100.00;98679.22;6253562;22;19911;-94
2023/11/13 20:27:57;;;;;;;;;;;;;;;3.99;100.00;98686.31;6214508;23;19923;-90
2023/11/13 20:33:27;;;;;;;;;;;;;;;3.99;100.00;98684.53;6206614;23;19919;-87
2023/11/13 20:35:55;;;;;;;;;;;;;;;4.06;100.00;98690.41;6213169;23;19916;-91
2023/11/13 20:41:59;;;;;;;;;;;;;;;;;;;;;
2023/11/13 20:44:51;;;;;;;;;;;;;;;4.16;100.00;98723.28;6220231;22;19986;-93
2023/11/13 20:47:24;;;;;;;;;;;;;;;4.08;100.00;98717.41;6250685;22;19997;-96
2023/11/13 20:56:39;;;;;;;;;;;;;;;4.08;100.00;98746.25;6125518;23;20281;-90
2023/11/13 20:59:34;;;;;;;;;;;;;;;4.16;100.00;98746.88;6071703;23;19917;-89
2023/11/13 21:02:10;;;;;;;;;;;;;;;4.03;100.00;98748.19;6270494;22;19915;-89
2023/11/13 21:11:16;;;;;;;;;;;;;;;4.26;100.00;98778.03;6094381;23;19948;-95
2023/11/13 21:13:42;;;;;;;;;;;;;;;4.12;100.00;98776.72;6238058;22;19964;-90
2023/11/13 21:16:28;;;;;;;;;;;;;;;;;;;;;
2023/11/13 21:19:24;;;;;;;;;;;;;;;;;;;;;
2023/11/13 21:21:58;;;;;;;;;;;;;;;4.18;100.00;98813.25;6261668;22;20006;-95
2023/11/13 21:24:57;;;;;;;;;;;;;;;4.12;100.00;98809.97;6280750;22;20238;-95
2023/11/13 21:27:36;;;;;;;;;;;;;;;;;;;;;
2023/11/13 21:30:26;;;;;;;;;;;;;;;4.07;100.00;98833.69;6287185;22;19947;-96
2023/11/13 21:36:17;;;;;;;;;;;;;;;4.11;100.00;98845.78;6178749;22;19907;-96
2023/11/13 21:38:45;;;;;;;;;;;;;;;4.09;100.00;98841.53;6189862;23;19917;-95
2023/11/13 21:44:32;;;;;;;;;;;;;;;;;;;;;
2023/11/13 21:47:55;;;;;;;;;;;;;;;;;;;;;
2023/11/13 21:50:31;;;;;;;;;;;;;;;3.97;100.00;98847.97;6272206;22;20333;-95
2023/11/13 21:53:30;;;;;;;;;;;;;;;;;;;;;
2023/11/13 21:56:32;;;;;;;;;;;;;;;;;;;;;
2023/11/13 21:59:01;;;;;;;;;;;;;;;4.05;100.00;98868.72;6282626;22;20613;-93
2023/11/13 22:01:51;;;;;;;;;;;;;;;4.16;100.00;98866.63;6286161;22;19917;-95
2023/11/13 22:04:21;;;;;;;;;;;;;;;3.94;100.00;98871.66;6232511;22;19908;-95
2023/11/13 22:06:54;;;;;;;;;;;;;;;3.97;100.00;98872.47;6256423;22;19991;-93
2023/11/13 22:09:20;;;;;;;;;;;;;;;4.09;100.00;98873.81;6259424;22;19946;-94
2023/11/13 22:15:17;;;;;;;;;;;;;;;4.17;100.00;98876.22;6282803;22;19940;-96
2023/11/13 22:21:18;;;;;;;;;;;;;;;3.99;100.00;98857.53;6160872;22;19942;-95
2023/11/13 22:23:46;;;;;;;;;;;;;;;4.10;100.00;98872.94;6257206;22;19919;-95
2023/11/13 22:26:19;;;;;;;;;;;;;;;4.13;100.00;98864.97;6256374;22;19915;-95
2023/11/13 22:29:00;;;;;;;;;;;;;;;4.10;100.00;98864.19;6255659;22;19915;-95
2023/11/13 22:31:30;;;;;;;;;;;;;;;4.09;100.00;98867.75;6255681;22;19915;-95
2023/11/13 22:33:55;;;;;;;;;;;;;;;4.02;100.00;98871.44;6256460;22;19994;-88
2023/11/13 22:36:30;;;;;;;;;;;;;;;4.02;100.00;98876.69;6272688;22;19927;-94
2023/11/13 22:38:56;;;;;;;;;;;;;;;4.01;100.00;98875.84;6251806;22;20339;-94
2023/11/13 22:41:24;;;;;;;;;;;;;;;4.01;100.00;98875.84;6251864;22;19945;-91
2023/11/13 22:43:49;;;;;;;;;;;;;;;4.08;100.00;98882.59;6253918;22;19930;-93
2023/11/13 22:46:17;;;;;;;;;;;;;;;4.04;100.00;98880.97;6278526;22;19919;-90
2023/11/13 22:48:42;;;;;;;;;;;;;;;4.11;100.00;98879.03;6251676;22;19911;-92
2023/11/13 22:51:08;;;;;;;;;;;;;;;4.11;100.00;98865.91;6254465;22;19957;-93
2023/11/13 22:53:34;;;;;;;;;;;;;;;4.07;100.00;98865.16;6251575;22;19930;-93
2023/11/13 22:55:59;;;;;;;;;;;;;;;4.17;100.00;98879.69;6251623;22;20413;-93
2023/11/13 23:00:58;;;;;;;;;;;;;;;4.07;100.00;98883.50;6266032;22;19946;-92
2023/11/13 23:03:26;;;;;;;;;;;;;;;4.08;100.00;98877.34;6252947;22;19915;-92
2023/11/13 23:05:51;;;;;;;;;;;;;;;4.10;100.00;98880.81;6258022;22;20310;-93
2023/11/13 23:10:48;;;;;;;;;;;;;;;4.18;100.00;98883.19;6267243;22;20321;-93
2023/11/13 23:13:18;;;;;;;;;;;;;;;4.18;100.00;98896.31;6248280;22;20006;-93
2023/11/13 23:15:51;;;;;;;;;;;;;;;4.16;100.00;98905.97;6245470;22;19985;-94
2023/11/13 23:18:22;;;;;;;;;;;;;;;4.27;100.00;98919.59;6250722;22;19937;-94
2023/11/13 23:20:54;;;;;;;;;;;;;;;4.21;100.00;98925.03;6252212;22;19916;-93
2023/11/13 23:23:26;;;;;;;;;;;;;;;4.30;100.00;98924.75;6252857;22;19912;-94
2023/11/13 23:25:59;;;;;;;;;;;;;;;4.31;100.00;98936.13;6252458;22;19915;-93
2023/11/13 23:28:25;;;;;;;;;;;;;;;4.31;100.00;98938.75;6250164;22;20353;-92
2023/11/13 23:30:52;;;;;;;;;;;;;;;4.31;100.00;98942.22;6282099;22;20311;-93
2023/11/13 23:33:17;;;;;;;;;;;;;;;4.29;100.00;98933.53;6252712;22;20228;-93
2023/11/13 23:35:45;;;;;;;;;;;;;;;4.33;100.00;98931.66;6279985;22;19918;-94
2023/11/13 23:38:11;;;;;;;;;;;;;;;4.31;100.00;98929.09;6252054;22;19911;-93
2023/11/13 23:40:37;;;;;;;;;;;;;;;4.33;100.00;98935.13;6249699;22;19969;-93
2023/11/13 23:43:08;;;;;;;;;;;;;;;4.30;100.00;98939.63;6278244;22;19986;-93
2023/11/13 23:45:35;;;;;;;;;;;;;;;4.41;100.00;98941.94;6251366;22;19911;-93
2023/11/13 23:48:00;;;;;;;;;;;;;;;4.33;100.00;98931.66;6252760;22;20066;-95
